createdAt,value
2023-02-11T00:00:01.826Z,100.53
2023-02-11T00:15:01.572Z,99.72
2023-02-11T00:30:01.887Z,100.21
2023-02-11T00:45:02.492Z,100.98
2023-02-11T01:00:01.605Z,100.82
2023-02-11T01:15:02.527Z,99.52
2023-02-11T01:30:02.110Z,99.97
2023-02-11T01:45:02.482Z,99.16
2023-02-11T02:00:02.167Z,98.75
2023-02-11T02:15:02.495Z,100.37
2023-02-11T02:30:02.159Z,99.97
2023-02-11T02:45:01.455Z,100.9
2023-02-11T03:00:01.799Z,99
2023-02-11T03:15:02.454Z,100.5
2023-02-11T03:30:02.360Z,101.63
2023-02-11T03:45:02.468Z,100.7
2023-02-11T04:00:02.046Z,101.18
2023-02-11T04:15:01.577Z,101.51
2023-02-11T04:30:01.884Z,101.51
2023-02-11T04:45:02.625Z,100.5
2023-02-11T05:00:01.625Z,100.57
2023-02-11T05:15:02.594Z,99.81
2023-02-11T05:30:01.620Z,100.45
2023-02-11T05:45:02.565Z,102.56
2023-02-11T06:00:02.076Z,102.19
2023-02-11T06:15:02.606Z,102.92
2023-02-11T06:30:01.683Z,103
2023-02-11T06:45:02.598Z,103.53
2023-02-11T07:00:02.238Z,99.85
2023-02-11T07:15:01.398Z,98.63
2023-02-11T07:30:01.787Z,97.62
2023-02-11T07:45:02.667Z,96
2023-02-11T08:00:01.675Z,93.82
2023-02-11T08:15:02.666Z,93.65
2023-02-11T08:30:02.259Z,88.8
2023-02-11T08:45:01.545Z,85.15
2023-02-11T09:00:01.885Z,78.88
2023-02-11T09:15:02.704Z,80.3
2023-02-11T09:30:01.696Z,68.32
2023-02-11T09:45:02.648Z,68.36
2023-02-11T10:00:02.091Z,66.58
2023-02-11T10:15:02.161Z,66.58
2023-02-11T10:30:02.509Z,66.58
2023-02-11T10:45:02.995Z,66.58
2023-02-11T11:00:02.188Z,66.58
2023-02-11T11:15:01.868Z,66.58
2023-02-11T11:30:02.465Z,66.58
2023-02-11T11:45:01.359Z,66.58
2023-02-11T12:00:01.778Z,66.58
2023-02-11T12:15:01.826Z,66.58
2023-02-11T12:30:02.503Z,66.58
2023-02-11T12:45:01.491Z,66.58
2023-02-11T13:00:01.872Z,66.58
2023-02-11T13:15:01.859Z,66.58
2023-02-11T13:30:04.186Z,38.85
2023-02-11T13:45:02.168Z,26.79
2023-02-11T14:00:01.542Z,36.6
2023-02-11T14:15:03.402Z,39.54
2023-02-11T14:30:01.976Z,38.69
2023-02-11T14:45:02.294Z,56.14
2023-02-11T15:00:02.991Z,65.16
2023-02-11T15:15:01.694Z,69.94
2023-02-11T15:30:02.620Z,69.65
2023-02-11T15:45:01.945Z,72.97
2023-02-11T16:00:02.551Z,72.97
2023-02-11T16:15:02.055Z,86.49
2023-02-11T16:30:01.479Z,90.34
2023-02-11T16:45:01.756Z,90.34
2023-02-11T17:00:02.181Z,90.34
2023-02-11T17:15:02.356Z,90.34
2023-02-11T17:30:01.605Z,90.34
2023-02-11T17:45:01.942Z,90.34
2023-02-11T18:00:02.306Z,90.34
2023-02-11T18:15:02.926Z,99.68
2023-02-11T18:30:01.945Z,100.9
2023-02-11T18:45:01.682Z,101.79
2023-02-11T19:00:02.115Z,103.41
2023-02-11T19:15:01.742Z,103.45
2023-02-11T19:30:02.199Z,105.47
2023-02-11T19:45:01.471Z,108.6
2023-02-11T20:00:02.222Z,106.2
2023-02-11T20:15:02.112Z,106.85
2023-02-11T20:30:02.236Z,107.86
2023-02-11T20:45:01.807Z,107.9
2023-02-11T21:00:02.267Z,107.94
2023-02-11T21:15:02.116Z,108.59
2023-02-11T21:30:02.274Z,108.95
2023-02-11T21:45:01.991Z,109.32
2023-02-11T22:00:02.266Z,109.28
2023-02-11T22:15:01.432Z,110.13
2023-02-11T22:30:02.282Z,110.85
2023-02-11T22:45:02.150Z,111.6
2023-02-11T23:00:02.370Z,112.51
2023-02-11T23:15:04.657Z,113.4
2023-02-11T23:30:02.266Z,113.89
2023-02-11T23:45:01.650Z,114.9
